createdAt,value
2018-10-16T00:01:00.815Z,17.23
2018-10-16T00:03:31.216Z,12.50
2018-10-16T00:06:01.642Z,11.93
2018-10-16T00:08:32.021Z,14.47
2018-10-16T00:11:02.717Z,12.97
2018-10-16T00:13:33.116Z,15.13
2018-10-16T00:16:03.465Z,14.47
2018-10-16T00:18:35.181Z,11.63
2018-10-16T00:21:05.669Z,13.20
2018-10-16T00:23:35.942Z,13.13
2018-10-16T00:26:07.215Z,12.87
2018-10-16T00:28:39.849Z,13.40
2018-10-16T00:31:10.810Z,14.23
2018-10-16T00:33:41.148Z,13.53
2018-10-16T00:36:11.460Z,14.07
2018-10-16T00:38:42.046Z,15.30
2018-10-16T00:41:12.304Z,15.90
2018-10-16T00:43:42.634Z,12.93
2018-10-16T00:46:12.954Z,12.53
2018-10-16T00:48:43.755Z,15.93
2018-10-16T00:51:14.088Z,14.60
2018-10-16T00:53:44.356Z,11.33
2018-10-16T00:56:14.690Z,15.20
2018-10-16T00:58:45.041Z,12.10
2018-10-16T01:01:17.845Z,14.93
2018-10-16T01:03:48.148Z,16.70
2018-10-16T01:06:18.491Z,12.83
2018-10-16T01:08:48.819Z,12.40
2018-10-16T01:11:19.589Z,13.10
2018-10-16T01:13:49.922Z,13.00
2018-10-16T01:16:20.389Z,15.57
2018-10-16T01:18:50.744Z,10.43
2018-10-16T01:21:22.010Z,12.23
2018-10-16T01:23:52.956Z,14.87
2018-10-16T01:26:23.747Z,13.97
2018-10-16T01:28:55.483Z,13.77
2018-10-16T01:31:25.820Z,17.13
2018-10-16T01:33:56.269Z,13.83
2018-10-16T01:36:26.582Z,14.03
2018-10-16T01:39:05.425Z,13.40
2018-10-16T01:41:35.822Z,15.90
2018-10-16T01:44:06.144Z,13.43
2018-10-16T01:46:36.416Z,11.97
2018-10-16T01:49:06.958Z,12.80
2018-10-16T01:51:37.278Z,14.87
2018-10-16T01:54:09.805Z,12.30
2018-10-16T01:56:40.210Z,11.73
2018-10-16T01:59:10.440Z,15.30
2018-10-16T02:01:40.788Z,15.47
2018-10-16T02:04:11.392Z,15.30
2018-10-16T02:06:41.841Z,14.00
2018-10-16T02:09:13.332Z,12.23
2018-10-16T02:11:43.668Z,11.73
2018-10-16T02:14:13.917Z,15.53
2018-10-16T02:16:44.396Z,15.23
2018-10-16T02:19:15.107Z,15.87
2018-10-16T02:21:45.462Z,11.47
2018-10-16T02:24:15.893Z,12.57
2018-10-16T02:26:46.187Z,12.90
2018-10-16T02:29:17.531Z,15.83
2018-10-16T02:31:47.811Z,13.10
2018-10-16T02:34:18.227Z,14.33
2018-10-16T02:36:48.525Z,14.20
2018-10-16T02:39:18.800Z,14.53
2018-10-16T02:41:49.147Z,12.50
2018-10-16T02:44:19.924Z,13.93
2018-10-16T02:46:50.314Z,15.03
2018-10-16T02:49:20.612Z,16.10
2018-10-16T02:51:50.958Z,14.37
2018-10-16T02:54:21.689Z,15.23
2018-10-16T02:56:52.068Z,13.77
2018-10-16T02:59:22.376Z,18.97
2018-10-16T03:01:52.674Z,14.13
2018-10-16T03:04:23.004Z,15.77
2018-10-16T03:06:53.359Z,15.80
2018-10-16T03:09:24.975Z,15.60
2018-10-16T03:11:55.282Z,14.23
2018-10-16T03:14:25.585Z,15.00
2018-10-16T03:16:55.896Z,14.30
2018-10-16T03:19:26.586Z,15.07
2018-10-16T03:21:56.747Z,13.53
2018-10-16T03:24:26.933Z,18.90
2018-10-16T03:26:57.060Z,14.77
2018-10-16T03:29:27.191Z,15.57
2018-10-16T03:31:57.336Z,18.20
2018-10-16T03:34:27.775Z,21.93
2018-10-16T03:36:58.007Z,14.60
2018-10-16T03:39:28.151Z,15.10
2018-10-16T03:41:58.295Z,15.57
2018-10-16T03:44:28.743Z,15.77
2018-10-16T03:46:58.960Z,17.47
2018-10-16T03:49:29.557Z,15.83
2018-10-16T03:51:59.719Z,16.60
2018-10-16T03:54:30.533Z,17.20
2018-10-16T03:57:05.636Z,21.33
2018-10-16T04:02:12.921Z,18.40
2018-10-16T04:04:43.449Z,21.07
2018-10-16T04:07:13.632Z,17.90
2018-10-16T04:09:43.788Z,17.17
2018-10-16T04:12:14.126Z,20.40
2018-10-16T04:14:45.297Z,16.57
2018-10-16T04:17:15.440Z,20.90
2018-10-16T04:19:45.684Z,20.23
2018-10-16T04:22:17.240Z,17.37
2018-10-16T04:24:47.367Z,17.83
2018-10-16T04:27:17.429Z,16.03
2018-10-16T04:29:47.607Z,17.33
2018-10-16T04:32:18.303Z,20.17
2018-10-16T04:34:48.715Z,22.80
2018-10-16T04:37:18.885Z,18.40
2018-10-16T04:39:49.256Z,19.50
2018-10-16T04:42:19.378Z,18.80
2018-10-16T04:44:49.538Z,17.20
2018-10-16T04:47:20.084Z,20.70
2018-10-16T04:49:50.267Z,19.30
2018-10-16T04:52:20.397Z,15.97
2018-10-16T04:54:50.881Z,16.17
2018-10-16T04:57:21.341Z,15.43
2018-10-16T04:59:51.608Z,19.37
2018-10-16T05:02:22.237Z,15.50
2018-10-16T05:04:52.674Z,16.60
2018-10-16T05:07:22.925Z,15.73
2018-10-16T05:09:53.366Z,15.93
2018-10-16T05:12:23.543Z,16.40
2018-10-16T05:14:53.800Z,19.90
2018-10-16T05:17:24.281Z,15.50
2018-10-16T05:19:54.691Z,17.67
2018-10-16T05:22:24.795Z,16.70
2018-10-16T05:24:54.893Z,19.53
2018-10-16T05:27:25.101Z,16.00
2018-10-16T05:29:55.259Z,21.27
2018-10-16T05:32:25.920Z,16.07
2018-10-16T05:34:56.511Z,14.83
2018-10-16T05:37:26.637Z,17.50
2018-10-16T05:39:56.727Z,16.37
2018-10-16T05:42:26.871Z,17.13
2018-10-16T05:44:57.035Z,17.90
2018-10-16T05:47:27.339Z,16.50
2018-10-16T05:49:57.808Z,17.63
2018-10-16T05:52:28.868Z,14.20
2018-10-16T05:54:59.536Z,16.83
2018-10-16T05:57:29.835Z,17.47
2018-10-16T06:00:10.540Z,16.00
2018-10-16T06:02:40.780Z,19.53
2018-10-16T06:05:12.106Z,16.90
2018-10-16T06:07:43.405Z,18.53
2018-10-16T06:10:14.081Z,18.20
2018-10-16T06:12:44.299Z,16.93
2018-10-16T06:15:14.830Z,18.87
2018-10-16T06:17:45.073Z,17.67
2018-10-16T06:20:15.295Z,17.27
2018-10-16T06:22:45.500Z,20.73
2018-10-16T06:25:15.751Z,18.07
2018-10-16T06:27:45.985Z,17.10
2018-10-16T06:30:16.698Z,17.23
2018-10-16T06:32:46.832Z,21.30
2018-10-16T06:35:17.063Z,18.40
2018-10-16T06:37:47.260Z,17.63
2018-10-16T06:40:17.729Z,22.83
2018-10-16T06:42:47.840Z,16.67
2018-10-16T06:45:17.975Z,20.70
2018-10-16T06:47:48.290Z,20.17
2018-10-16T06:50:18.419Z,19.47
2018-10-16T06:52:48.516Z,15.63
2018-10-16T06:55:20.856Z,19.57
2018-10-16T06:57:51.090Z,17.63
2018-10-16T07:00:21.560Z,19.77
2018-10-16T07:02:51.936Z,19.10
2018-10-16T07:05:22.127Z,18.40
2018-10-16T07:07:52.268Z,18.50
2018-10-16T07:10:22.512Z,17.23
2018-10-16T07:12:53.039Z,18.73
2018-10-16T07:15:23.212Z,20.80
2018-10-16T07:17:53.263Z,18.23
2018-10-16T07:20:23.534Z,20.73
2018-10-16T07:22:53.743Z,20.37
2018-10-16T07:25:23.996Z,20.80
2018-10-16T07:27:54.574Z,18.40
2018-10-16T07:30:24.896Z,15.40
2018-10-16T07:32:55.077Z,16.23
2018-10-16T07:35:25.240Z,18.53
2018-10-16T07:37:56.451Z,20.90
2018-10-16T07:40:26.615Z,18.70
2018-10-16T07:42:57.056Z,16.27
2018-10-16T07:45:27.143Z,16.60
2018-10-16T07:47:57.447Z,19.13
2018-10-16T07:50:27.589Z,15.37
2018-10-16T07:52:57.734Z,19.70
2018-10-16T07:55:28.017Z,19.77
2018-10-16T07:57:58.432Z,16.07
2018-10-16T08:00:28.652Z,18.07
2018-10-16T08:02:58.784Z,16.53
2018-10-16T08:05:28.947Z,15.97
2018-10-16T08:07:59.083Z,17.63
2018-10-16T08:10:29.212Z,15.93
2018-10-16T08:12:59.736Z,20.57
2018-10-16T08:15:29.934Z,15.80
2018-10-16T08:18:00.151Z,15.63
2018-10-16T08:20:30.371Z,14.83
2018-10-16T08:23:00.829Z,14.00
2018-10-16T08:25:30.999Z,14.27
2018-10-16T08:28:01.229Z,13.93
2018-10-16T08:30:31.580Z,16.30
2018-10-16T08:33:01.735Z,21.33
2018-10-16T08:35:32.008Z,16.83
2018-10-16T08:40:10.130Z,12.13
2018-10-16T08:43:51.128Z,12.40
2018-10-16T08:46:32.351Z,14.90
2018-10-16T08:49:13.263Z,9.53
2018-10-16T08:51:49.335Z,12.30
2018-10-16T08:54:19.693Z,9.87
2018-10-16T08:56:49.968Z,14.73
2018-10-16T08:59:20.641Z,8.27
2018-10-16T09:01:51.149Z,9.07
2018-10-16T09:04:21.352Z,15.37
2018-10-16T09:06:51.665Z,8.80
2018-10-16T09:09:22.357Z,10.23
2018-10-16T09:11:52.518Z,11.73
2018-10-16T09:14:22.845Z,11.13
2018-10-16T09:16:53.056Z,8.20
2018-10-16T09:19:25.464Z,10.93
2018-10-16T09:21:55.597Z,9.70
2018-10-16T09:24:25.761Z,9.97
2018-10-16T09:26:55.848Z,12.27
2018-10-16T09:29:27.342Z,9.87
2018-10-16T09:31:57.520Z,9.40
2018-10-16T09:34:27.691Z,11.77
2018-10-16T09:36:57.917Z,12.67
2018-10-16T09:39:28.082Z,12.30
2018-10-16T09:41:58.308Z,11.90
2018-10-16T09:44:28.988Z,10.07
2018-10-16T09:46:59.512Z,12.83
2018-10-16T09:49:29.759Z,17.53
2018-10-16T09:51:59.939Z,17.50
2018-10-16T09:54:30.144Z,12.90
2018-10-16T09:57:00.403Z,14.07
2018-10-16T09:59:30.955Z,16.40
2018-10-16T10:02:01.066Z,14.63
2018-10-16T10:04:31.499Z,15.13
2018-10-16T10:07:01.845Z,12.30
2018-10-16T10:09:32.269Z,11.87
2018-10-16T10:12:03.186Z,13.50
2018-10-16T10:14:33.910Z,15.90
2018-10-16T10:17:04.220Z,13.80
2018-10-16T10:19:34.407Z,11.97
2018-10-16T10:22:04.876Z,14.90
2018-10-16T10:24:35.308Z,13.40
2018-10-16T10:27:05.469Z,14.17
2018-10-16T10:29:36.634Z,15.93
2018-10-16T10:32:08.247Z,12.97
2018-10-16T10:34:38.455Z,13.60
2018-10-16T10:37:11.359Z,13.37
2018-10-16T10:39:41.524Z,15.67
2018-10-16T10:42:11.788Z,12.77
2018-10-16T10:44:42.728Z,10.87
2018-10-16T10:47:13.422Z,14.47
2018-10-16T10:49:43.643Z,13.13
2018-10-16T10:52:19.499Z,13.20
2018-10-16T10:54:57.865Z,13.13
2018-10-16T10:57:28.020Z,13.93
2018-10-16T10:59:58.480Z,15.80
2018-10-16T11:02:28.671Z,14.23
2018-10-16T11:04:58.890Z,10.73
2018-10-16T11:07:31.145Z,20.17
2018-10-16T11:10:10.317Z,12.97
2018-10-16T11:12:43.237Z,14.63
2018-10-16T11:15:20.764Z,10.47
2018-10-16T11:17:51.636Z,12.07
2018-10-16T11:20:22.424Z,10.67
2018-10-16T11:22:53.435Z,10.57
2018-10-16T11:25:44.942Z,10.83
2018-10-16T11:28:15.067Z,10.53
2018-10-16T11:30:45.656Z,12.30
2018-10-16T11:33:15.876Z,10.77
2018-10-16T11:35:46.047Z,7.97
2018-10-16T11:38:16.311Z,8.87
2018-10-16T11:40:46.571Z,7.50
2018-10-16T11:43:17.017Z,11.73
2018-10-16T11:45:47.199Z,9.13
2018-10-16T11:48:17.440Z,10.53
2018-10-16T11:50:47.844Z,11.50
2018-10-16T11:53:22.131Z,7.33
2018-10-16T11:55:52.314Z,8.70
2018-10-16T11:58:22.522Z,8.23
2018-10-16T12:00:52.693Z,9.83
2018-10-16T12:03:23.384Z,7.30
2018-10-16T12:05:53.545Z,9.77
2018-10-16T12:08:23.687Z,11.50
2018-10-16T12:10:53.923Z,10.37
2018-10-16T12:13:24.167Z,9.50
2018-10-16T12:15:54.763Z,9.60
2018-10-16T12:18:28.243Z,9.67
2018-10-16T12:21:03.526Z,9.60
2018-10-16T12:23:33.708Z,9.67
2018-10-16T12:26:06.286Z,10.30
2018-10-16T12:28:36.720Z,10.33
2018-10-16T12:31:07.000Z,9.87
2018-10-16T12:33:37.240Z,8.57
2018-10-16T12:36:07.796Z,9.70
2018-10-16T12:38:38.126Z,10.63
2018-10-16T12:41:08.647Z,10.20
2018-10-16T12:43:39.077Z,7.97
2018-10-16T12:46:09.154Z,9.30
2018-10-16T12:48:39.688Z,6.70
2018-10-16T12:51:10.004Z,14.53
2018-10-16T12:53:40.064Z,8.20
2018-10-16T12:56:11.936Z,7.77
2018-10-16T12:58:42.277Z,7.27
2018-10-16T13:01:12.440Z,7.50
2018-10-16T13:03:42.614Z,6.73
2018-10-16T13:06:13.143Z,6.67
2018-10-16T13:08:43.347Z,6.70
2018-10-16T13:11:13.575Z,7.60
2018-10-16T13:13:43.796Z,14.00
2018-10-16T13:16:15.366Z,5.77
2018-10-16T13:18:45.592Z,6.40
2018-10-16T13:21:16.030Z,5.80
2018-10-16T13:23:46.248Z,5.57
2018-10-16T13:26:16.540Z,6.07
2018-10-16T13:28:46.773Z,8.07
2018-10-16T13:31:18.343Z,6.20
2018-10-16T13:33:48.586Z,8.03
2018-10-16T13:36:18.689Z,9.30
2018-10-16T13:38:49.533Z,6.37
2018-10-16T13:41:21.049Z,7.77
2018-10-16T13:43:51.303Z,5.63
2018-10-16T13:46:21.634Z,7.50
2018-10-16T13:48:51.759Z,6.37
2018-10-16T13:51:21.956Z,6.73
2018-10-16T13:53:52.473Z,7.07
2018-10-16T13:56:22.693Z,12.13
2018-10-16T13:58:52.986Z,7.30
2018-10-16T14:01:23.176Z,6.37
2018-10-16T14:03:53.631Z,13.37
2018-10-16T14:06:23.892Z,5.57
2018-10-16T14:08:54.109Z,8.50
2018-10-16T14:11:24.584Z,7.53
2018-10-16T14:13:55.021Z,9.23
2018-10-16T14:16:25.326Z,6.00
2018-10-16T14:18:56.864Z,8.13
2018-10-16T14:21:27.886Z,7.17
2018-10-16T14:23:58.243Z,6.23
2018-10-16T14:26:28.552Z,7.80
2018-10-16T14:28:59.051Z,7.60
2018-10-16T14:31:31.399Z,5.47
2018-10-16T14:34:01.615Z,7.63
2018-10-16T14:36:32.269Z,8.47
2018-10-16T14:39:02.572Z,5.87
2018-10-16T14:41:33.560Z,8.13
2018-10-16T14:44:04.819Z,7.53
2018-10-16T14:46:35.109Z,8.23
2018-10-16T14:49:06.161Z,6.03
2018-10-16T14:51:42.859Z,6.40
2018-10-16T14:54:13.776Z,7.83
2018-10-16T14:56:44.347Z,5.50
2018-10-16T14:59:16.323Z,9.03
2018-10-16T15:01:49.269Z,8.70
2018-10-16T15:04:19.590Z,13.27
2018-10-16T15:06:49.883Z,7.83
2018-10-16T15:09:21.224Z,8.73
2018-10-16T15:11:53.292Z,10.87
2018-10-16T15:14:23.569Z,7.27
2018-10-16T15:16:54.036Z,9.07
2018-10-16T15:19:28.324Z,8.23
2018-10-16T15:21:58.431Z,6.97
2018-10-16T15:24:28.693Z,9.13
2018-10-16T15:26:59.591Z,7.67
2018-10-16T15:29:29.775Z,5.83
2018-10-16T15:32:00.373Z,12.00
2018-10-16T15:34:30.708Z,8.47
2018-10-16T15:37:00.889Z,6.77
2018-10-16T15:39:31.427Z,7.70
2018-10-16T15:42:01.622Z,7.10
2018-10-16T15:44:32.240Z,6.23
2018-10-16T15:47:02.539Z,6.70
2018-10-16T15:49:37.798Z,12.23
2018-10-16T15:52:08.384Z,6.77
2018-10-16T15:54:38.553Z,6.03
2018-10-16T15:57:08.820Z,8.17
2018-10-16T15:59:39.683Z,7.73
2018-10-16T16:02:10.086Z,6.00
2018-10-16T16:04:40.564Z,7.57
2018-10-16T16:07:10.896Z,8.33
2018-10-16T16:09:41.053Z,8.00
2018-10-16T16:12:11.427Z,9.57
2018-10-16T16:14:41.695Z,9.77
2018-10-16T16:17:12.331Z,9.83
2018-10-16T16:19:42.834Z,8.70
2018-10-16T16:22:13.071Z,7.77
2018-10-16T16:24:43.427Z,9.07
2018-10-16T16:27:14.266Z,8.47
2018-10-16T16:29:44.432Z,7.63
2018-10-16T16:32:14.681Z,7.17
2018-10-16T16:34:44.885Z,10.50
2018-10-16T16:37:15.166Z,9.33
2018-10-16T16:39:46.829Z,9.20
2018-10-16T16:42:17.844Z,6.63
2018-10-16T16:44:48.164Z,6.53
2018-10-16T16:47:18.428Z,7.33
2018-10-16T16:49:52.910Z,7.33
2018-10-16T16:52:23.495Z,6.60
2018-10-16T16:54:53.878Z,11.20
2018-10-16T16:57:24.364Z,11.33
2018-10-16T16:59:56.942Z,8.10
2018-10-16T17:02:27.173Z,13.37
2018-10-16T17:04:57.459Z,10.50
2018-10-16T17:07:28.073Z,9.57
2018-10-16T17:09:58.423Z,7.80
2018-10-16T17:12:28.736Z,8.63
2018-10-16T17:15:00.472Z,10.30
2018-10-16T17:17:30.787Z,9.43
2018-10-16T17:20:01.001Z,9.20
2018-10-16T17:22:31.154Z,10.50
2018-10-16T17:25:01.921Z,9.10
2018-10-16T17:27:34.053Z,10.37
2018-10-16T17:30:09.768Z,11.27
2018-10-16T17:32:40.020Z,12.03
2018-10-16T17:35:12.909Z,10.17
2018-10-16T17:37:50.793Z,8.73
2018-10-16T17:40:21.402Z,9.07
2018-10-16T17:42:52.225Z,9.00
2018-10-16T17:45:22.898Z,9.50
2018-10-16T17:47:53.614Z,9.67
2018-10-16T17:50:27.468Z,9.57
2018-10-16T17:52:57.870Z,9.57
2018-10-16T17:55:28.628Z,8.23
2018-10-16T17:57:58.818Z,9.20
2018-10-16T18:00:28.941Z,10.17
2018-10-16T18:02:59.271Z,9.23
2018-10-16T18:05:31.458Z,10.30
2018-10-16T18:08:03.077Z,8.13
2018-10-16T18:10:33.551Z,9.77
2018-10-16T18:13:05.198Z,12.17
2018-10-16T18:15:36.894Z,8.00
2018-10-16T18:18:07.520Z,12.20
2018-10-16T18:20:37.801Z,13.80
2018-10-16T18:23:08.674Z,8.90
2018-10-16T18:25:39.436Z,10.47
2018-10-16T18:28:11.249Z,9.37
2018-10-16T18:30:41.800Z,9.60
2018-10-16T18:33:12.152Z,13.57
2018-10-16T18:35:44.795Z,12.10
2018-10-16T18:38:15.286Z,11.53
2018-10-16T18:40:46.224Z,15.27
2018-10-16T18:43:16.807Z,7.43
2018-10-16T18:45:47.324Z,10.47
2018-10-16T18:48:18.401Z,10.83
2018-10-16T18:50:50.450Z,12.50
2018-10-16T18:53:21.958Z,9.13
2018-10-16T18:55:54.407Z,19.37
2018-10-16T19:01:01.267Z,9.77
2018-10-16T19:03:31.694Z,12.50
2018-10-16T19:06:04.025Z,9.57
2018-10-16T19:08:37.564Z,10.17
2018-10-16T19:11:15.609Z,10.40
2018-10-16T19:13:46.327Z,11.77
2018-10-16T19:16:17.445Z,12.63
2018-10-16T19:18:48.884Z,15.23
2018-10-16T19:21:19.559Z,9.83
2018-10-16T19:23:52.201Z,14.90
2018-10-16T19:26:22.812Z,10.40
2018-10-16T19:28:53.229Z,16.10
2018-10-16T19:31:24.683Z,12.70
2018-10-16T19:34:07.904Z,12.97
2018-10-16T19:36:38.294Z,10.20
2018-10-16T19:39:11.077Z,12.57
2018-10-16T19:41:42.422Z,12.13
2018-10-16T19:44:12.709Z,12.77
2018-10-16T19:46:43.257Z,11.33
2018-10-16T19:49:14.226Z,11.67
2018-10-16T19:51:46.563Z,11.80
2018-10-16T19:54:19.263Z,12.00
2018-10-16T19:56:50.215Z,11.57
2018-10-16T19:59:20.485Z,13.20
2018-10-16T20:01:51.477Z,17.67
2018-10-16T20:04:23.384Z,14.83
2018-10-16T20:06:54.175Z,9.93
2018-10-16T20:09:24.755Z,11.40
2018-10-16T20:11:55.615Z,12.23
2018-10-16T20:14:25.874Z,8.83
2018-10-16T20:16:57.114Z,10.43
2018-10-16T20:19:27.654Z,13.67
2018-10-16T20:22:00.334Z,13.90
2018-10-16T20:24:31.021Z,14.33
2018-10-16T20:30:16.237Z,9.40
2018-10-16T20:32:46.739Z,11.33
2018-10-16T20:35:17.231Z,10.87
2018-10-16T20:37:47.741Z,9.70
2018-10-16T20:40:17.934Z,10.90
2018-10-16T20:42:48.468Z,12.87
2018-10-16T20:45:18.572Z,10.53
2018-10-16T20:47:49.810Z,11.33
2018-10-16T20:50:20.242Z,12.50
2018-10-16T20:52:50.423Z,13.30
2018-10-16T20:55:20.551Z,13.10
2018-10-16T20:57:50.804Z,14.70
2018-10-16T21:00:21.459Z,11.33
2018-10-16T21:02:51.671Z,11.67
2018-10-16T21:05:22.219Z,12.37
2018-10-16T21:07:52.179Z,11.50
2018-10-16T21:10:23.999Z,11.87
2018-10-16T21:12:54.450Z,11.40
2018-10-16T21:15:25.016Z,10.80
2018-10-16T21:17:55.726Z,14.40
2018-10-16T21:20:25.853Z,13.60
2018-10-16T21:22:56.229Z,12.20
2018-10-16T21:25:26.559Z,13.63
2018-10-16T21:27:58.098Z,12.67
2018-10-16T21:30:29.153Z,14.07
2018-10-16T21:32:59.508Z,14.03
2018-10-16T21:35:31.397Z,12.60
2018-10-16T21:38:01.736Z,14.97
2018-10-16T21:40:32.103Z,15.67
2018-10-16T21:43:02.467Z,13.33
2018-10-16T21:45:32.898Z,14.00
2018-10-16T21:48:03.224Z,13.20
2018-10-16T21:50:34.779Z,14.43
2018-10-16T21:53:05.098Z,15.37
2018-10-16T21:55:35.686Z,11.53
2018-10-16T21:58:06.244Z,12.90
2018-10-16T22:00:41.843Z,14.60
2018-10-16T22:03:11.931Z,14.83
2018-10-16T22:05:42.133Z,13.87
2018-10-16T22:08:12.683Z,14.53
2018-10-16T22:10:43.327Z,14.17
2018-10-16T22:13:13.635Z,16.20
2018-10-16T22:15:44.108Z,15.40
2018-10-16T22:18:14.304Z,13.27
2018-10-16T22:20:44.643Z,17.47
2018-10-16T22:23:16.708Z,15.87
2018-10-16T22:25:47.522Z,14.93
2018-10-16T22:28:17.643Z,15.10
2018-10-16T22:30:48.010Z,16.57
2018-10-16T22:33:18.160Z,16.17
2018-10-16T22:35:48.329Z,14.33
2018-10-16T22:38:18.900Z,14.37
2018-10-16T22:40:49.031Z,12.83
2018-10-16T22:43:19.185Z,14.10
2018-10-16T22:45:49.353Z,12.63
2018-10-16T22:48:19.522Z,14.40
2018-10-16T22:50:49.960Z,13.40
2018-10-16T22:53:20.068Z,14.77
2018-10-16T22:55:50.803Z,15.77
2018-10-16T22:58:21.036Z,13.97
2018-10-16T23:00:51.305Z,12.37
2018-10-16T23:03:21.626Z,12.03
2018-10-16T23:05:53.260Z,14.57
2018-10-16T23:08:23.724Z,13.13
2018-10-16T23:10:53.926Z,14.23
2018-10-16T23:13:24.123Z,15.43
2018-10-16T23:15:54.267Z,15.77
2018-10-16T23:18:26.273Z,12.13
2018-10-16T23:20:56.497Z,14.37
2018-10-16T23:23:26.736Z,14.03
2018-10-16T23:25:57.092Z,11.83
2018-10-16T23:28:27.540Z,13.20
2018-10-16T23:30:57.732Z,13.23
2018-10-16T23:33:27.860Z,13.63
2018-10-16T23:35:58.536Z,16.10
2018-10-16T23:38:28.615Z,13.87
2018-10-16T23:40:59.214Z,15.50
2018-10-16T23:43:29.708Z,13.30
2018-10-16T23:45:59.763Z,11.10
2018-10-16T23:48:29.907Z,13.17
2018-10-16T23:51:00.353Z,13.03
2018-10-16T23:53:31.024Z,15.20
2018-10-16T23:56:01.154Z,14.33
2018-10-16T23:58:31.439Z,13.83
